createdAt,value
2019-03-29T00:00:40.260Z,2.90
2019-03-29T00:03:09.153Z,2.80
2019-03-29T00:05:37.980Z,2.80
2019-03-29T00:08:06.689Z,2.70
2019-03-29T00:10:35.619Z,2.60
2019-03-29T00:13:04.602Z,2.60
2019-03-29T00:15:33.990Z,2.60
2019-03-29T00:18:09.965Z,2.60
2019-03-29T00:20:38.699Z,2.50
2019-03-29T00:23:07.163Z,2.50
2019-03-29T00:25:35.876Z,2.50
2019-03-29T00:28:07.502Z,2.40
2019-03-29T00:30:36.258Z,2.50
2019-03-29T00:33:05.310Z,2.40
2019-03-29T00:35:34.173Z,2.40
2019-03-29T00:38:02.872Z,2.30
2019-03-29T00:40:31.549Z,2.30
2019-03-29T00:42:59.974Z,2.20
2019-03-29T00:45:28.378Z,2.20
2019-03-29T00:47:56.778Z,2.10
2019-03-29T00:50:25.223Z,2.10
2019-03-29T00:52:53.707Z,2.10
2019-03-29T00:55:22.101Z,2.00
2019-03-29T00:57:50.554Z,2.00
2019-03-29T01:00:19.297Z,1.90
2019-03-29T01:02:47.692Z,1.90
2019-03-29T01:05:16.230Z,1.90
2019-03-29T01:07:45.015Z,1.80
2019-03-29T01:10:13.554Z,1.80
2019-03-29T01:12:41.958Z,1.80
2019-03-29T01:15:10.696Z,1.90
2019-03-29T01:17:39.094Z,1.80
2019-03-29T01:20:08.268Z,1.80
2019-03-29T01:22:36.792Z,1.70
2019-03-29T01:25:08.013Z,1.60
2019-03-29T01:27:36.914Z,1.60
2019-03-29T01:30:07.226Z,1.60
2019-03-29T01:32:35.670Z,1.60
2019-03-29T01:35:06.772Z,1.60
2019-03-29T01:37:35.161Z,1.60
2019-03-29T01:40:04.132Z,1.60
2019-03-29T01:42:32.523Z,1.50
2019-03-29T01:45:00.980Z,1.50
2019-03-29T01:47:30.034Z,1.50
2019-03-29T01:49:58.653Z,1.40
2019-03-29T01:52:27.080Z,1.40
2019-03-29T01:54:57.038Z,1.40
2019-03-29T01:57:25.534Z,1.40
2019-03-29T01:59:54.250Z,1.40
2019-03-29T02:02:22.742Z,1.40
2019-03-29T02:04:51.159Z,1.40
2019-03-29T02:07:19.810Z,1.30
2019-03-29T02:09:48.221Z,1.20
2019-03-29T02:12:16.609Z,1.20
2019-03-29T02:14:45.194Z,1.20
2019-03-29T02:17:14.126Z,1.20
2019-03-29T02:19:42.505Z,1.20
2019-03-29T02:22:10.973Z,1.10
2019-03-29T02:24:39.378Z,1.20
2019-03-29T02:27:07.781Z,1.20
2019-03-29T02:29:36.952Z,1.20
2019-03-29T02:32:05.708Z,1.10
2019-03-29T02:34:34.115Z,1.20
2019-03-29T02:37:02.708Z,1.20
2019-03-29T02:39:31.301Z,1.10
2019-03-29T02:42:00.019Z,1.10
2019-03-29T02:44:28.460Z,1.10
2019-03-29T02:46:56.862Z,1.10
2019-03-29T02:49:25.429Z,1.00
2019-03-29T02:51:53.835Z,1.00
2019-03-29T02:54:22.318Z,0.90
2019-03-29T02:56:50.951Z,0.90
2019-03-29T02:59:19.344Z,0.80
2019-03-29T03:01:47.747Z,0.90
2019-03-29T03:04:16.149Z,0.90
2019-03-29T03:06:44.546Z,0.80
2019-03-29T03:09:14.579Z,0.80
2019-03-29T03:11:43.358Z,0.80
2019-03-29T03:14:11.961Z,0.80
2019-03-29T03:16:40.800Z,0.80
2019-03-29T03:19:09.487Z,0.70
2019-03-29T03:21:38.140Z,0.60
2019-03-29T03:24:06.609Z,0.50
2019-03-29T03:26:35.032Z,0.50
2019-03-29T03:29:03.793Z,0.60
2019-03-29T03:31:32.190Z,0.60
2019-03-29T03:34:00.589Z,0.50
2019-03-29T03:36:29.011Z,0.50
2019-03-29T03:38:57.453Z,0.50
2019-03-29T03:41:25.991Z,0.40
2019-03-29T03:43:54.627Z,0.40
2019-03-29T03:46:23.103Z,0.40
2019-03-29T03:48:51.494Z,0.50
2019-03-29T03:51:19.888Z,0.50
2019-03-29T03:53:48.465Z,0.40
2019-03-29T03:56:17.518Z,0.40
2019-03-29T03:58:45.976Z,0.40
2019-03-29T04:01:14.371Z,0.30
2019-03-29T04:03:43.007Z,0.30
2019-03-29T04:06:11.734Z,0.30
2019-03-29T04:08:40.111Z,0.30
2019-03-29T04:11:08.515Z,0.30
2019-03-29T04:13:36.909Z,0.40
2019-03-29T04:16:05.581Z,0.40
2019-03-29T04:18:34.141Z,0.30
2019-03-29T04:21:02.536Z,0.40
2019-03-29T04:23:30.934Z,0.40
2019-03-29T04:25:59.325Z,0.30
2019-03-29T04:28:27.730Z,0.30
2019-03-29T04:30:56.141Z,0.20
2019-03-29T04:33:24.535Z,0.20
2019-03-29T04:35:52.948Z,0.10
2019-03-29T04:38:21.353Z,0.20
2019-03-29T04:40:49.762Z,0.10
2019-03-29T04:43:18.410Z,0.20
2019-03-29T04:45:47.064Z,0.20
2019-03-29T04:48:15.455Z,0.20
2019-03-29T04:50:43.871Z,0.20
2019-03-29T04:53:12.271Z,0.10
2019-03-29T04:55:40.675Z,0.10
2019-03-29T04:58:09.303Z,0.10
2019-03-29T05:00:37.743Z,0.10
2019-03-29T05:03:06.142Z,0.00
2019-03-29T05:05:34.550Z,0.10
2019-03-29T05:08:02.973Z,0.10
2019-03-29T05:10:31.442Z,0.00
2019-03-29T05:13:00.101Z,0.00
2019-03-29T05:15:28.510Z,0.10
2019-03-29T05:17:56.922Z,0.10
2019-03-29T05:20:25.318Z,0.10
2019-03-29T05:22:53.970Z,0.10
2019-03-29T05:25:22.604Z,0.10
2019-03-29T05:27:51.019Z,0.20
2019-03-29T05:30:19.493Z,0.10
2019-03-29T05:32:47.952Z,0.10
2019-03-29T05:35:16.387Z,0.10
2019-03-29T05:37:45.035Z,0.20
2019-03-29T05:40:13.482Z,0.20
2019-03-29T05:42:41.893Z,0.20
2019-03-29T05:45:10.735Z,0.30
2019-03-29T05:47:42.509Z,0.30
2019-03-29T05:50:23.174Z,0.20
2019-03-29T05:52:51.830Z,0.30
2019-03-29T05:55:31.964Z,0.30
2019-03-29T05:57:50.596Z,0.40
2019-03-29T06:00:19.359Z,0.50
2019-03-29T06:02:47.756Z,0.50
2019-03-29T06:05:16.458Z,0.60
2019-03-29T06:07:44.853Z,0.80
2019-03-29T06:10:13.654Z,0.80
2019-03-29T06:12:42.055Z,0.80
2019-03-29T06:15:10.532Z,0.80
2019-03-29T06:17:48.476Z,0.80
2019-03-29T06:20:12.661Z,0.90
2019-03-29T06:22:41.124Z,1.20
2019-03-29T06:25:09.771Z,1.80
2019-03-29T06:27:38.166Z,2.30
2019-03-29T06:30:07.399Z,2.90
2019-03-29T06:32:36.030Z,3.80
2019-03-29T06:35:07.023Z,4.80
2019-03-29T06:37:37.035Z,5.40
2019-03-29T06:40:08.557Z,5.90
2019-03-29T06:42:37.190Z,6.10
2019-03-29T06:45:07.407Z,6.10
2019-03-29T06:47:35.833Z,5.90
2019-03-29T06:50:06.442Z,6.30
2019-03-29T06:52:34.835Z,6.50
2019-03-29T06:55:03.497Z,6.60
2019-03-29T06:57:31.937Z,6.70
2019-03-29T07:00:00.502Z,7.10
2019-03-29T07:02:29.306Z,7.10
2019-03-29T07:04:57.934Z,7.10
2019-03-29T07:07:26.645Z,7.50
2019-03-29T07:09:55.275Z,7.30
2019-03-29T07:12:23.674Z,7.70
2019-03-29T07:14:52.070Z,7.80
2019-03-29T07:17:20.482Z,8.50
2019-03-29T07:19:49.113Z,9.20
2019-03-29T07:22:17.536Z,8.70
2019-03-29T07:24:45.997Z,9.70
2019-03-29T07:27:14.409Z,10.60
2019-03-29T07:29:42.827Z,11.00
2019-03-29T07:32:11.226Z,11.30
2019-03-29T07:34:39.609Z,12.60
2019-03-29T07:37:08.093Z,14.20
2019-03-29T07:39:36.494Z,14.50
2019-03-29T07:42:04.975Z,15.40
2019-03-29T07:44:33.615Z,15.00
2019-03-29T07:47:02.012Z,14.50
2019-03-29T07:49:30.397Z,14.60
2019-03-29T07:51:58.802Z,14.10
2019-03-29T07:54:42.258Z,14.50
2019-03-29T07:57:10.666Z,15.10
2019-03-29T07:59:39.287Z,15.50
2019-03-29T08:02:07.725Z,16.00
2019-03-29T08:04:36.194Z,16.50
2019-03-29T08:07:06.054Z,17.20
2019-03-29T08:09:36.769Z,17.70
2019-03-29T08:12:05.228Z,17.60
2019-03-29T08:14:33.849Z,18.00
2019-03-29T08:17:02.473Z,18.30
2019-03-29T08:19:30.915Z,19.00
2019-03-29T08:22:05.055Z,19.00
2019-03-29T08:24:33.688Z,19.80
2019-03-29T08:27:02.319Z,19.50
2019-03-29T08:29:31.494Z,20.20
2019-03-29T08:32:00.251Z,20.30
2019-03-29T08:34:28.686Z,20.50
2019-03-29T08:36:57.154Z,21.60
2019-03-29T08:39:28.100Z,22.20
2019-03-29T08:42:00.465Z,22.20
2019-03-29T08:44:28.693Z,21.20
2019-03-29T08:46:59.719Z,21.40
2019-03-29T08:49:41.435Z,21.50
2019-03-29T08:52:13.660Z,21.90
2019-03-29T08:54:42.366Z,23.20
2019-03-29T08:57:12.506Z,23.60
2019-03-29T08:59:43.317Z,23.00
2019-03-29T09:02:20.948Z,23.30
2019-03-29T09:04:49.511Z,22.30
2019-03-29T09:07:18.051Z,23.70
2019-03-29T09:09:46.691Z,24.20
2019-03-29T09:12:15.310Z,23.20
2019-03-29T09:14:43.883Z,21.90
2019-03-29T09:17:12.601Z,22.20
2019-03-29T09:19:41.032Z,22.20
2019-03-29T09:22:09.691Z,22.50
2019-03-29T09:24:38.348Z,22.50
2019-03-29T09:27:06.950Z,21.80
2019-03-29T09:29:35.721Z,22.60
2019-03-29T09:32:05.661Z,20.90
2019-03-29T09:34:34.105Z,21.60
2019-03-29T09:37:02.670Z,22.00
2019-03-29T09:39:31.350Z,21.40
2019-03-29T09:41:59.789Z,22.70
2019-03-29T09:44:28.293Z,22.30
2019-03-29T09:46:57.258Z,22.70
2019-03-29T09:49:25.923Z,22.60
2019-03-29T09:51:54.340Z,22.60
2019-03-29T09:54:24.326Z,22.70
2019-03-29T09:56:53.480Z,22.00
2019-03-29T09:59:23.253Z,23.20
2019-03-29T10:01:54.059Z,23.50
2019-03-29T10:04:21.962Z,23.90
2019-03-29T10:06:50.461Z,21.30
2019-03-29T10:09:18.878Z,22.50
2019-03-29T10:11:47.373Z,22.10
2019-03-29T10:14:15.968Z,21.20
2019-03-29T10:16:44.370Z,19.60
2019-03-29T10:19:12.794Z,20.00
2019-03-29T10:21:42.491Z,20.50
2019-03-29T10:24:10.899Z,20.60
2019-03-29T10:26:39.377Z,21.70
2019-03-29T10:29:07.767Z,21.50
2019-03-29T10:31:36.198Z,22.50
2019-03-29T10:34:04.631Z,24.20
2019-03-29T10:36:33.382Z,23.80
2019-03-29T10:39:01.882Z,24.30
2019-03-29T10:41:30.546Z,24.50
2019-03-29T10:43:59.358Z,23.60
2019-03-29T10:46:27.751Z,21.60
2019-03-29T10:48:56.252Z,20.10
2019-03-29T10:51:24.659Z,20.20
2019-03-29T10:53:53.092Z,20.10
2019-03-29T10:56:33.429Z,20.80
2019-03-29T10:58:52.009Z,21.90
2019-03-29T11:01:24.642Z,21.40
2019-03-29T11:03:52.448Z,21.10
2019-03-29T11:06:21.110Z,20.60
2019-03-29T11:08:51.165Z,20.50
2019-03-29T11:11:19.599Z,20.50
2019-03-29T11:13:48.038Z,20.30
2019-03-29T11:16:16.470Z,19.80
2019-03-29T11:18:45.954Z,19.70
2019-03-29T11:21:14.743Z,20.40
2019-03-29T11:23:48.887Z,21.80
2019-03-29T11:26:17.290Z,23.30
2019-03-29T11:28:45.922Z,24.10
2019-03-29T11:31:14.313Z,24.10
2019-03-29T11:33:42.718Z,24.60
2019-03-29T11:36:11.167Z,23.50
2019-03-29T11:38:39.614Z,22.40
2019-03-29T11:41:08.156Z,21.40
2019-03-29T11:43:36.640Z,20.30
2019-03-29T11:46:05.596Z,19.50
2019-03-29T11:48:35.736Z,19.10
2019-03-29T11:51:18.373Z,19.40
2019-03-29T11:53:34.469Z,19.70
2019-03-29T11:56:02.926Z,19.50
2019-03-29T11:58:31.405Z,20.30
2019-03-29T12:00:59.827Z,21.00
2019-03-29T12:03:28.561Z,21.80
2019-03-29T12:05:57.190Z,22.00
2019-03-29T12:08:25.832Z,21.40
2019-03-29T12:10:54.285Z,20.60
2019-03-29T12:13:22.791Z,19.80
2019-03-29T12:15:51.279Z,19.00
2019-03-29T12:18:19.766Z,19.00
2019-03-29T12:20:48.234Z,20.10
2019-03-29T12:23:16.865Z,21.00
2019-03-29T12:25:45.293Z,21.00
2019-03-29T12:28:13.835Z,21.40
2019-03-29T12:30:42.346Z,21.30
2019-03-29T12:33:10.790Z,22.20
2019-03-29T12:35:39.462Z,22.60
2019-03-29T12:38:07.889Z,23.10
2019-03-29T12:40:36.586Z,24.00
2019-03-29T12:43:05.310Z,24.40
2019-03-29T12:45:33.859Z,24.10
2019-03-29T12:48:02.332Z,24.30
2019-03-29T12:50:30.951Z,23.90
2019-03-29T12:52:59.382Z,24.10
2019-03-29T12:55:27.812Z,24.00
2019-03-29T12:57:56.197Z,23.70
2019-03-29T13:00:24.665Z,24.00
2019-03-29T13:02:53.121Z,22.40
2019-03-29T13:05:21.551Z,23.30
2019-03-29T13:07:52.913Z,23.10
2019-03-29T13:10:20.416Z,22.10
2019-03-29T13:12:48.801Z,22.40
2019-03-29T13:15:17.243Z,22.20
2019-03-29T13:17:45.678Z,22.10
2019-03-29T13:20:14.218Z,22.10
2019-03-29T13:22:42.695Z,22.20
2019-03-29T13:25:11.170Z,21.30
2019-03-29T13:27:39.919Z,20.70
2019-03-29T13:30:09.563Z,20.60
2019-03-29T13:32:40.821Z,20.40
2019-03-29T13:35:09.517Z,20.70
2019-03-29T13:37:38.266Z,21.00
2019-03-29T13:40:08.372Z,21.10
2019-03-29T13:42:36.845Z,21.30
2019-03-29T13:45:08.322Z,20.50
2019-03-29T13:47:37.157Z,20.50
2019-03-29T13:50:08.613Z,20.00
2019-03-29T13:52:37.989Z,20.20
2019-03-29T13:55:07.474Z,20.00
2019-03-29T13:57:36.318Z,19.70
2019-03-29T14:00:11.082Z,19.50
2019-03-29T14:02:39.572Z,19.60
2019-03-29T14:05:08.221Z,19.40
2019-03-29T14:07:37.536Z,19.50
2019-03-29T14:10:07.580Z,19.30
2019-03-29T14:12:36.154Z,19.30
2019-03-29T14:15:07.275Z,19.30
2019-03-29T14:17:35.705Z,18.90
2019-03-29T14:20:05.740Z,19.10
2019-03-29T14:22:35.015Z,19.20
2019-03-29T14:25:05.057Z,19.00
2019-03-29T14:27:33.797Z,19.00
2019-03-29T14:30:04.568Z,18.60
2019-03-29T14:32:35.675Z,18.50
2019-03-29T14:35:06.407Z,18.40
2019-03-29T14:37:35.139Z,18.00
2019-03-29T14:40:05.468Z,18.00
2019-03-29T14:42:33.944Z,17.90
2019-03-29T14:45:02.531Z,17.90
2019-03-29T14:47:41.340Z,17.70
2019-03-29T14:50:01.525Z,17.90
2019-03-29T14:52:30.181Z,17.90
2019-03-29T14:54:58.841Z,18.00
2019-03-29T14:57:27.471Z,17.90
2019-03-29T14:59:55.877Z,17.80
2019-03-29T15:02:24.350Z,17.70
2019-03-29T15:04:52.820Z,17.80
2019-03-29T15:07:21.441Z,18.00
2019-03-29T15:09:50.373Z,17.90
2019-03-29T15:12:18.765Z,17.90
2019-03-29T15:14:47.167Z,17.90
2019-03-29T15:17:15.589Z,17.90
2019-03-29T15:19:44.213Z,17.80
2019-03-29T15:22:12.617Z,17.70
2019-03-29T15:24:41.019Z,17.50
2019-03-29T15:27:09.430Z,17.30
2019-03-29T15:29:37.838Z,17.30
2019-03-29T15:32:06.248Z,17.30
2019-03-29T15:34:34.713Z,17.40
2019-03-29T15:37:03.362Z,17.30
2019-03-29T15:39:32.270Z,17.30
2019-03-29T15:42:01.181Z,17.30
2019-03-29T15:44:29.803Z,17.10
2019-03-29T15:46:58.443Z,17.10
2019-03-29T15:49:27.078Z,17.00
2019-03-29T15:51:55.471Z,17.00
2019-03-29T15:54:24.112Z,16.80
2019-03-29T15:56:52.505Z,16.70
2019-03-29T15:59:20.923Z,16.80
2019-03-29T16:01:49.322Z,16.70
2019-03-29T16:04:17.726Z,16.60
2019-03-29T16:06:46.122Z,16.50
2019-03-29T16:09:14.524Z,16.50
2019-03-29T16:11:43.179Z,16.40
2019-03-29T16:14:11.714Z,16.40
2019-03-29T16:16:40.108Z,16.50
2019-03-29T16:19:08.514Z,16.50
2019-03-29T16:21:37.144Z,16.40
2019-03-29T16:24:05.817Z,16.30
2019-03-29T16:26:34.203Z,16.30
2019-03-29T16:29:02.618Z,16.40
2019-03-29T16:31:31.270Z,16.40
2019-03-29T16:33:59.665Z,16.30
2019-03-29T16:36:28.057Z,16.30
2019-03-29T16:38:56.748Z,16.10
2019-03-29T16:41:25.410Z,16.10
2019-03-29T16:43:53.797Z,16.00
2019-03-29T16:46:22.452Z,15.90
2019-03-29T16:48:50.839Z,15.90
2019-03-29T16:51:19.237Z,15.80
2019-03-29T16:53:47.626Z,15.80
2019-03-29T16:56:16.054Z,15.70
2019-03-29T16:58:44.558Z,15.60
2019-03-29T17:01:13.214Z,15.60
2019-03-29T17:03:41.608Z,15.50
2019-03-29T17:06:10.266Z,15.40
2019-03-29T17:08:38.900Z,15.40
2019-03-29T17:11:07.370Z,15.30
2019-03-29T17:13:35.781Z,15.20
2019-03-29T17:16:04.427Z,15.20
2019-03-29T17:18:33.050Z,15.00
2019-03-29T17:21:01.772Z,14.90
2019-03-29T17:23:30.308Z,14.90
2019-03-29T17:25:58.710Z,14.80
2019-03-29T17:28:27.125Z,14.70
2019-03-29T17:30:57.171Z,14.60
2019-03-29T17:33:25.609Z,14.60
2019-03-29T17:35:54.073Z,14.50
2019-03-29T17:38:22.717Z,14.50
2019-03-29T17:40:51.118Z,14.40
2019-03-29T17:43:19.552Z,14.40
2019-03-29T17:45:47.956Z,14.20
2019-03-29T17:48:16.342Z,14.00
2019-03-29T17:50:44.750Z,13.80
2019-03-29T17:53:13.148Z,13.80
2019-03-29T17:55:41.545Z,13.80
2019-03-29T17:58:21.840Z,13.80
2019-03-29T18:00:50.248Z,13.70
2019-03-29T18:03:18.634Z,13.50
2019-03-29T18:05:47.037Z,13.20
2019-03-29T18:08:15.437Z,12.90
2019-03-29T18:10:43.851Z,12.60
2019-03-29T18:13:12.315Z,12.20
2019-03-29T18:15:40.717Z,11.90
2019-03-29T18:18:12.932Z,11.60
2019-03-29T18:20:40.054Z,11.30
2019-03-29T18:23:08.614Z,11.10
2019-03-29T18:25:37.280Z,10.90
2019-03-29T18:28:05.849Z,10.60
2019-03-29T18:30:41.950Z,10.50
2019-03-29T18:33:10.360Z,10.30
2019-03-29T18:35:38.906Z,10.20
2019-03-29T18:38:07.299Z,10.00
2019-03-29T18:40:35.736Z,9.80
2019-03-29T18:43:04.143Z,9.60
2019-03-29T18:45:32.573Z,9.60
2019-03-29T18:48:00.974Z,9.50
2019-03-29T18:50:29.377Z,9.30
2019-03-29T18:52:57.810Z,9.20
2019-03-29T18:55:32.149Z,9.00
2019-03-29T18:58:00.626Z,8.90
2019-03-29T19:00:30.834Z,8.80
2019-03-29T19:02:59.347Z,8.70
2019-03-29T19:05:28.155Z,8.60
2019-03-29T19:07:56.546Z,8.50
2019-03-29T19:10:25.046Z,8.50
2019-03-29T19:12:53.702Z,8.30
2019-03-29T19:15:22.194Z,8.30
2019-03-29T19:17:50.693Z,8.10
2019-03-29T19:20:27.505Z,7.90
2019-03-29T19:22:49.227Z,7.90
2019-03-29T19:25:17.642Z,7.80
2019-03-29T19:27:46.033Z,7.70
2019-03-29T19:30:14.774Z,7.70
2019-03-29T19:32:43.181Z,7.60
2019-03-29T19:35:11.754Z,7.40
2019-03-29T19:37:40.134Z,7.40
2019-03-29T19:40:09.649Z,7.30
2019-03-29T19:42:38.089Z,7.20
2019-03-29T19:45:09.231Z,7.10
2019-03-29T19:47:37.619Z,7.10
2019-03-29T19:50:06.659Z,7.00
2019-03-29T19:52:35.052Z,7.00
2019-03-29T19:55:04.312Z,6.80
2019-03-29T19:57:32.701Z,6.80
2019-03-29T20:00:01.324Z,6.60
2019-03-29T20:02:29.809Z,6.50
2019-03-29T20:04:58.457Z,6.70
2019-03-29T20:07:26.849Z,6.60
2019-03-29T20:09:55.252Z,6.50
2019-03-29T20:12:25.163Z,6.40
2019-03-29T20:14:54.042Z,6.30
2019-03-29T20:17:27.715Z,6.20
2019-03-29T20:19:52.874Z,6.30
2019-03-29T20:22:21.262Z,6.20
2019-03-29T20:24:49.675Z,6.00
2019-03-29T20:27:18.142Z,6.00
2019-03-29T20:29:46.537Z,6.00
2019-03-29T20:32:14.922Z,5.90
2019-03-29T20:34:43.318Z,5.80
2019-03-29T20:37:11.706Z,5.70
2019-03-29T20:39:40.120Z,5.70
2019-03-29T20:42:08.511Z,5.50
2019-03-29T20:44:36.919Z,5.60
2019-03-29T20:47:05.313Z,5.60
2019-03-29T20:49:33.701Z,5.50
2019-03-29T20:52:02.101Z,5.50
2019-03-29T20:54:30.500Z,5.40
2019-03-29T20:56:58.935Z,5.30
2019-03-29T20:59:27.394Z,5.30
2019-03-29T21:01:55.809Z,5.20
2019-03-29T21:04:24.202Z,5.20
2019-03-29T21:06:52.608Z,5.20
2019-03-29T21:09:21.009Z,5.10
2019-03-29T21:11:49.460Z,5.00
2019-03-29T21:14:17.903Z,5.00
2019-03-29T21:16:46.538Z,5.00
2019-03-29T21:19:15.362Z,5.00
2019-03-29T21:21:43.773Z,5.00
2019-03-29T21:24:12.155Z,4.90
2019-03-29T21:26:40.565Z,4.80
2019-03-29T21:29:09.207Z,4.80
2019-03-29T21:31:37.855Z,4.70
2019-03-29T21:34:06.570Z,4.70
2019-03-29T21:36:35.008Z,4.60
2019-03-29T21:39:06.670Z,4.60
2019-03-29T21:41:35.130Z,4.50
2019-03-29T21:44:03.807Z,4.50
2019-03-29T21:46:32.439Z,4.40
2019-03-29T21:49:01.075Z,4.30
2019-03-29T21:51:29.466Z,4.30
2019-03-29T21:53:57.857Z,4.30
2019-03-29T21:56:26.331Z,4.20
2019-03-29T21:58:54.946Z,4.20
2019-03-29T22:01:23.477Z,4.20
2019-03-29T22:03:51.881Z,4.20
2019-03-29T22:06:20.281Z,4.00
2019-03-29T22:08:48.981Z,4.00
2019-03-29T22:11:17.711Z,4.00
2019-03-29T22:13:46.109Z,3.90
2019-03-29T22:16:14.501Z,3.90
2019-03-29T22:18:43.404Z,3.90
2019-03-29T22:21:12.120Z,3.80
2019-03-29T22:23:40.558Z,3.80
2019-03-29T22:26:09.193Z,3.70
2019-03-29T22:28:37.822Z,3.60
2019-03-29T22:31:06.278Z,3.60
2019-03-29T22:33:35.692Z,3.60
2019-03-29T22:36:04.082Z,3.60
2019-03-29T22:38:32.530Z,3.50
2019-03-29T22:41:01.136Z,3.40
2019-03-29T22:43:29.513Z,3.60
2019-03-29T22:45:57.908Z,3.40
2019-03-29T22:48:26.293Z,3.40
2019-03-29T22:50:54.701Z,3.40
2019-03-29T22:53:23.102Z,3.30
2019-03-29T22:55:51.735Z,3.20
2019-03-29T22:58:20.147Z,3.30
2019-03-29T23:00:51.906Z,3.30
2019-03-29T23:03:20.599Z,3.20
2019-03-29T23:05:49.255Z,3.10
2019-03-29T23:08:31.494Z,3.10
2019-03-29T23:10:59.878Z,3.10
2019-03-29T23:13:28.308Z,3.00
2019-03-29T23:15:56.938Z,3.00
2019-03-29T23:18:25.571Z,2.90
2019-03-29T23:20:53.960Z,2.90
2019-03-29T23:23:22.394Z,2.80
2019-03-29T23:25:50.763Z,2.80
2019-03-29T23:28:19.236Z,2.90
2019-03-29T23:30:47.634Z,2.80
2019-03-29T23:33:16.011Z,2.90
2019-03-29T23:35:44.397Z,2.70
2019-03-29T23:38:12.817Z,2.90
2019-03-29T23:40:41.261Z,2.80
2019-03-29T23:43:09.928Z,2.70
2019-03-29T23:45:38.398Z,2.60
2019-03-29T23:48:06.806Z,2.60
2019-03-29T23:50:35.439Z,2.60
2019-03-29T23:53:03.850Z,2.60
2019-03-29T23:55:32.233Z,2.60
2019-03-29T23:58:00.641Z,2.50
